createdAt,value
2022-08-22T00:02:44.408Z,1.90
2022-08-22T00:02:55.668Z,1.75
2022-08-22T00:03:01.117Z,1.75
2022-08-22T00:03:11.175Z,2.00
2022-08-22T00:05:48.567Z,1.83
2022-08-22T00:08:38.765Z,2.08
2022-08-22T00:11:23.567Z,1.98
2022-08-22T00:14:01.502Z,1.90
2022-08-22T00:16:55.298Z,1.95
2022-08-22T00:19:44.676Z,1.95
2022-08-22T00:22:21.529Z,1.73
2022-08-22T00:25:25.733Z,1.65
2022-08-22T00:28:15.510Z,1.90
2022-08-22T00:31:16.087Z,2.05
2022-08-22T00:33:46.974Z,2.03
2022-08-22T00:36:25.895Z,2.00
2022-08-22T00:39:17.141Z,1.90
2022-08-22T00:42:01.770Z,1.95
2022-08-22T00:44:49.866Z,2.00
2022-08-22T00:47:37.303Z,1.90
2022-08-22T00:50:18.991Z,2.10
2022-08-22T00:53:11.786Z,1.83
2022-08-22T00:55:44.493Z,2.20
2022-08-22T00:58:25.989Z,2.10
2022-08-22T01:00:59.908Z,2.05
2022-08-22T01:03:44.788Z,1.90
2022-08-22T01:06:31.779Z,2.00
2022-08-22T01:09:39.781Z,1.80
2022-08-22T01:12:21.002Z,1.88
2022-08-22T01:14:55.084Z,2.00
2022-08-22T01:17:21.605Z,2.15
2022-08-22T01:20:10.576Z,2.03
2022-08-22T01:23:09.464Z,2.05
2022-08-22T01:26:13.426Z,2.33
2022-08-22T01:29:16.898Z,2.20
2022-08-22T01:31:56.537Z,1.90
2022-08-22T01:34:59.333Z,1.95
2022-08-22T01:37:50.840Z,2.22
2022-08-22T01:40:59.108Z,2.10
2022-08-22T01:43:58.856Z,1.90
2022-08-22T01:46:39.541Z,1.85
2022-08-22T01:52:36.483Z,1.83
2022-08-22T01:55:04.974Z,2.08
2022-08-22T01:57:31.609Z,2.15
2022-08-22T01:59:59.531Z,2.17
2022-08-22T02:02:50.571Z,2.05
2022-08-22T02:05:17.063Z,2.05
2022-08-22T02:07:48.705Z,2.47
2022-08-22T02:10:24.333Z,2.50
2022-08-22T02:13:12.298Z,1.95
2022-08-22T02:15:38.802Z,2.17
2022-08-22T02:18:05.320Z,2.20
2022-08-22T02:21:02.784Z,2.30
2022-08-22T02:23:44.471Z,2.22
2022-08-22T02:26:25.989Z,2.20
2022-08-22T02:29:28.237Z,2.00
2022-08-22T02:32:06.483Z,2.10
2022-08-22T02:35:10.515Z,2.08
2022-08-22T02:37:40.900Z,2.00
2022-08-22T02:40:16.406Z,2.20
2022-08-22T02:42:51.794Z,2.13
2022-08-22T02:45:45.890Z,2.17
2022-08-22T02:48:22.125Z,2.22
2022-08-22T02:51:06.580Z,2.13
2022-08-22T02:53:37.890Z,2.25
2022-08-22T02:56:15.234Z,2.30
2022-08-22T02:58:54.036Z,2.40
2022-08-22T03:01:28.890Z,2.03
2022-08-22T03:04:23.475Z,2.30
2022-08-22T03:07:07.915Z,2.35
2022-08-22T03:09:42.136Z,2.13
2022-08-22T03:12:17.401Z,2.25
2022-08-22T03:15:08.087Z,2.10
2022-08-22T03:17:39.108Z,2.03
2022-08-22T03:20:33.456Z,2.22
2022-08-22T03:23:05.688Z,1.88
2022-08-22T03:25:47.032Z,2.10
2022-08-22T03:28:16.011Z,1.75
2022-08-22T03:30:57.774Z,2.30
2022-08-22T03:33:28.353Z,2.13
2022-08-22T03:36:09.564Z,2.22
2022-08-22T03:38:36.020Z,2.55
2022-08-22T03:41:21.084Z,2.15
2022-08-22T03:44:16.473Z,2.30
2022-08-22T03:47:18.234Z,2.20
2022-08-22T03:50:06.629Z,2.35
2022-08-22T03:52:51.071Z,2.20
2022-08-22T03:55:33.258Z,2.05
2022-08-22T03:58:12.016Z,2.15
2022-08-22T04:01:22.131Z,2.20
2022-08-22T04:04:22.922Z,2.08
2022-08-22T04:07:05.897Z,2.05
2022-08-22T04:10:08.590Z,1.90
2022-08-22T04:13:06.579Z,1.98
2022-08-22T04:16:04.137Z,1.85
2022-08-22T04:18:39.755Z,2.10
2022-08-22T04:21:19.364Z,2.17
2022-08-22T04:23:48.820Z,2.20
2022-08-22T04:26:21.604Z,1.90
2022-08-22T04:28:50.798Z,1.90
2022-08-22T04:31:28.442Z,2.10
2022-08-22T04:34:10.672Z,2.10
2022-08-22T04:36:45.699Z,1.70
2022-08-22T04:39:22.081Z,2.15
2022-08-22T04:42:31.657Z,1.90
2022-08-22T04:45:09.887Z,2.00
2022-08-22T04:47:57.002Z,2.00
2022-08-22T04:50:36.604Z,1.98
2022-08-22T04:53:26.426Z,1.95
2022-08-22T04:56:07.096Z,1.90
2022-08-22T04:58:52.772Z,1.83
2022-08-22T05:01:33.406Z,2.03
2022-08-22T05:04:16.183Z,1.80
2022-08-22T05:06:44.438Z,1.77
2022-08-22T05:09:16.197Z,2.10
2022-08-22T05:11:43.041Z,1.60
2022-08-22T05:14:23.789Z,2.03
2022-08-22T05:16:50.960Z,2.10
2022-08-22T05:19:27.484Z,2.33
2022-08-22T05:21:57.916Z,2.10
2022-08-22T05:24:28.338Z,1.95
2022-08-22T05:26:55.451Z,1.90
2022-08-22T05:29:24.583Z,1.63
2022-08-22T05:32:02.416Z,1.90
2022-08-22T05:34:34.986Z,1.90
2022-08-22T05:37:13.333Z,1.92
2022-08-22T05:39:41.296Z,2.28
2022-08-22T05:42:13.161Z,1.95
2022-08-22T05:44:39.782Z,2.20
2022-08-22T05:47:23.757Z,1.88
2022-08-22T05:50:04.632Z,2.38
2022-08-22T05:52:49.876Z,2.10
2022-08-22T05:55:27.604Z,1.98
2022-08-22T05:58:20.117Z,2.20
2022-08-22T06:00:48.743Z,1.88
2022-08-22T06:03:24.642Z,1.90
2022-08-22T06:05:52.290Z,2.00
2022-08-22T06:08:20.712Z,2.13
2022-08-22T06:10:49.562Z,2.20
2022-08-22T06:13:24.637Z,1.95
2022-08-22T06:16:01.118Z,2.00
2022-08-22T06:18:27.796Z,2.05
2022-08-22T06:21:06.536Z,2.20
2022-08-22T06:23:37.504Z,1.85
2022-08-22T06:26:04.516Z,1.88
2022-08-22T06:28:37.548Z,2.30
2022-08-22T06:31:23.447Z,2.20
2022-08-22T06:33:57.744Z,1.98
2022-08-22T06:36:24.575Z,2.42
2022-08-22T06:39:08.923Z,2.70
2022-08-22T06:41:53.652Z,2.28
2022-08-22T06:44:22.611Z,2.33
2022-08-22T06:46:52.661Z,1.92
2022-08-22T06:49:19.291Z,2.10
2022-08-22T06:51:45.974Z,1.95
2022-08-22T06:54:17.674Z,2.40
2022-08-22T06:56:46.006Z,2.13
2022-08-22T06:59:17.170Z,2.42
2022-08-22T07:01:46.833Z,2.22
2022-08-22T07:04:13.478Z,2.30
2022-08-22T07:06:42.013Z,2.17
2022-08-22T07:09:18.773Z,2.72
2022-08-22T07:11:45.611Z,2.25
2022-08-22T07:14:16.523Z,2.35
2022-08-22T07:16:44.082Z,2.58
2022-08-22T07:19:26.321Z,3.10
2022-08-22T07:21:53.302Z,2.72
2022-08-22T07:24:22.746Z,2.83
2022-08-22T07:27:07.504Z,2.40
2022-08-22T07:30:02.073Z,2.38
2022-08-22T07:32:54.124Z,2.17
2022-08-22T07:35:20.803Z,2.72
2022-08-22T07:37:53.107Z,2.30
2022-08-22T07:40:27.410Z,2.53
2022-08-22T07:42:57.070Z,2.42
2022-08-22T07:45:51.180Z,2.55
2022-08-22T07:48:26.220Z,2.92
2022-08-22T07:51:05.357Z,2.53
2022-08-22T07:54:11.723Z,2.10
2022-08-22T07:56:41.942Z,2.90
2022-08-22T07:59:12.728Z,2.40
2022-08-22T08:01:45.673Z,2.42
2022-08-22T08:04:14.764Z,2.08
2022-08-22T08:06:41.501Z,3.20
2022-08-22T08:09:08.602Z,2.47
2022-08-22T08:11:39.098Z,1.92
2022-08-22T08:14:06.256Z,2.10
2022-08-22T08:16:40.320Z,2.38
2022-08-22T08:19:07.009Z,1.90
2022-08-22T08:21:54.369Z,1.55
2022-08-22T08:24:24.741Z,1.90
2022-08-22T08:26:54.497Z,1.50
2022-08-22T08:29:21.805Z,1.80
2022-08-22T08:31:49.360Z,1.83
2022-08-22T08:34:19.419Z,1.65
2022-08-22T08:36:54.227Z,1.48
2022-08-22T08:39:35.429Z,1.40
2022-08-22T08:42:29.672Z,1.35
2022-08-22T08:45:21.951Z,1.42
2022-08-22T08:48:15.013Z,1.20
2022-08-22T08:51:11.209Z,1.35
2022-08-22T08:54:22.430Z,1.30
2022-08-22T08:56:57.974Z,1.35
2022-08-22T09:02:42.282Z,1.13
2022-08-22T09:05:37.122Z,1.38
2022-08-22T09:08:25.591Z,1.25
2022-08-22T09:11:28.323Z,1.20
2022-08-22T09:14:16.303Z,1.38
2022-08-22T09:17:06.857Z,1.25
2022-08-22T09:20:17.514Z,1.20
2022-08-22T09:23:10.877Z,1.17
2022-08-22T09:25:55.956Z,1.00
2022-08-22T09:28:42.871Z,1.10
2022-08-22T09:31:46.484Z,1.33
2022-08-22T09:34:29.436Z,1.05
2022-08-22T09:36:56.107Z,1.02
2022-08-22T09:39:34.715Z,1.40
2022-08-22T09:42:18.750Z,1.20
2022-08-22T09:45:06.835Z,1.10
2022-08-22T09:47:39.267Z,1.13
2022-08-22T09:50:47.299Z,1.20
2022-08-22T09:53:57.014Z,1.08
2022-08-22T09:56:55.960Z,0.98
2022-08-22T09:59:45.894Z,1.00
2022-08-22T10:02:35.930Z,1.15
2022-08-22T10:05:40.657Z,1.10
2022-08-22T10:08:19.558Z,1.13
2022-08-22T10:10:52.728Z,1.05
2022-08-22T10:13:24.302Z,1.10
2022-08-22T10:15:59.716Z,1.13
2022-08-22T10:18:43.946Z,1.42
2022-08-22T10:21:30.766Z,1.00
2022-08-22T10:24:14.648Z,1.15
2022-08-22T10:27:04.182Z,1.30
2022-08-22T10:29:41.231Z,1.13
2022-08-22T10:32:38.672Z,1.10
2022-08-22T10:35:12.541Z,1.00
2022-08-22T10:38:00.890Z,1.00
2022-08-22T10:40:39.800Z,0.98
2022-08-22T10:43:14.888Z,1.25
2022-08-22T10:45:46.167Z,0.90
2022-08-22T10:48:39.828Z,1.02
2022-08-22T10:51:28.851Z,1.27
2022-08-22T10:54:27.424Z,1.10
2022-08-22T10:57:12.531Z,1.02
2022-08-22T10:59:44.465Z,1.10
2022-08-22T11:02:39.209Z,1.10
2022-08-22T11:05:30.723Z,0.93
2022-08-22T11:08:30.128Z,0.90
2022-08-22T11:11:10.229Z,1.02
2022-08-22T11:14:07.347Z,1.05
2022-08-22T11:16:59.656Z,1.15
2022-08-22T11:19:45.768Z,0.95
2022-08-22T11:22:21.533Z,1.10
2022-08-22T11:25:05.992Z,1.38
2022-08-22T11:28:18.771Z,1.10
2022-08-22T11:31:09.495Z,0.93
2022-08-22T11:34:13.887Z,1.08
2022-08-22T11:36:53.322Z,0.90
2022-08-22T11:39:44.266Z,0.90
2022-08-22T11:42:29.993Z,0.80
2022-08-22T11:47:27.409Z,0.90
2022-08-22T11:50:14.261Z,0.80
2022-08-22T11:55:32.536Z,0.77
2022-08-22T11:58:16.304Z,0.77
2022-08-22T12:01:23.461Z,0.90
2022-08-22T12:03:58.650Z,0.73
2022-08-22T12:06:48.332Z,0.93
2022-08-22T12:09:19.493Z,0.90
2022-08-22T12:12:16.009Z,0.90
2022-08-22T12:14:51.729Z,0.90
2022-08-22T12:17:56.015Z,1.00
2022-08-22T12:20:40.900Z,0.80
2022-08-22T12:23:17.298Z,0.85
2022-08-22T12:26:02.153Z,0.73
2022-08-22T12:28:50.533Z,0.80
2022-08-22T12:32:03.068Z,0.98
2022-08-22T12:34:55.886Z,0.80
2022-08-22T12:37:27.718Z,0.80
2022-08-22T12:40:16.277Z,0.90
2022-08-22T12:42:55.228Z,0.82
2022-08-22T12:45:46.315Z,0.98
2022-08-22T12:48:35.933Z,0.85
2022-08-22T12:51:29.383Z,0.93
2022-08-22T12:54:11.801Z,0.88
2022-08-22T12:56:47.679Z,1.00
2022-08-22T12:59:31.621Z,0.88
2022-08-22T13:02:11.444Z,0.90
2022-08-22T13:04:45.096Z,0.98
2022-08-22T13:07:23.172Z,0.90
2022-08-22T13:10:03.153Z,0.90
2022-08-22T13:12:38.068Z,1.10
2022-08-22T13:15:29.363Z,0.75
2022-08-22T13:18:08.663Z,0.98
2022-08-22T13:20:44.571Z,0.80
2022-08-22T13:23:13.620Z,0.88
2022-08-22T13:26:00.659Z,1.10
2022-08-22T13:28:30.113Z,0.80
2022-08-22T13:30:57.163Z,0.80
2022-08-22T13:33:28.106Z,0.90
2022-08-22T13:36:06.512Z,0.90
2022-08-22T13:39:08.812Z,0.90
2022-08-22T13:41:46.951Z,0.80
2022-08-22T13:44:19.247Z,0.57
2022-08-22T13:47:10.804Z,0.65
2022-08-22T13:49:36.412Z,0.70
2022-08-22T13:52:28.921Z,0.70
2022-08-22T13:55:02.890Z,0.75
2022-08-22T13:57:34.044Z,0.80
2022-08-22T14:00:35.473Z,0.85
2022-08-22T14:03:50.210Z,0.80
2022-08-22T14:06:37.263Z,0.68
2022-08-22T14:09:33.976Z,0.60
2022-08-22T14:12:23.990Z,0.73
2022-08-22T14:15:11.277Z,0.60
2022-08-22T14:17:42.990Z,0.70
2022-08-22T14:20:13.475Z,0.60
2022-08-22T14:23:04.824Z,0.68
2022-08-22T14:25:34.738Z,0.70
2022-08-22T14:28:06.338Z,0.80
2022-08-22T14:30:54.631Z,0.70
2022-08-22T14:33:47.273Z,0.80
2022-08-22T14:36:19.841Z,0.70
2022-08-22T14:38:58.562Z,0.88
2022-08-22T14:41:52.578Z,0.68
2022-08-22T14:44:31.534Z,0.80
2022-08-22T14:47:03.825Z,0.77
2022-08-22T14:49:51.492Z,0.65
2022-08-22T14:52:40.781Z,0.70
2022-08-22T14:55:14.848Z,0.90
2022-08-22T14:57:54.696Z,0.80
2022-08-22T15:00:28.618Z,0.68
2022-08-22T15:03:07.217Z,0.70
2022-08-22T15:05:45.661Z,0.80
2022-08-22T15:08:12.684Z,0.90
2022-08-22T15:10:42.321Z,0.90
2022-08-22T15:13:09.192Z,1.00
2022-08-22T15:15:41.196Z,0.90
2022-08-22T15:18:28.508Z,0.90
2022-08-22T15:21:08.568Z,1.00
2022-08-22T15:23:45.164Z,1.00
2022-08-22T15:26:26.813Z,1.00
2022-08-22T15:29:04.433Z,0.80
2022-08-22T15:31:31.508Z,0.80
2022-08-22T15:34:06.441Z,0.90
2022-08-22T15:36:33.191Z,1.00
2022-08-22T15:39:26.505Z,0.70
2022-08-22T15:41:53.922Z,0.70
2022-08-22T15:44:32.207Z,0.95
2022-08-22T15:47:10.921Z,0.90
2022-08-22T15:50:05.715Z,0.80
2022-08-22T15:52:33.843Z,1.00
2022-08-22T15:55:16.168Z,1.00
2022-08-22T15:57:51.021Z,0.90
2022-08-22T16:00:30.347Z,1.00
2022-08-22T16:03:03.843Z,0.98
2022-08-22T16:06:04.339Z,0.77
2022-08-22T16:08:37.839Z,0.90
2022-08-22T16:11:04.423Z,0.88
2022-08-22T16:13:30.911Z,0.90
2022-08-22T16:16:09.520Z,1.10
2022-08-22T16:18:39.031Z,0.90
2022-08-22T16:21:10.100Z,1.00
2022-08-22T16:23:49.595Z,0.80
2022-08-22T16:26:31.614Z,0.85
2022-08-22T16:29:25.073Z,0.77
2022-08-22T16:31:51.548Z,0.82
2022-08-22T16:34:18.283Z,0.75
2022-08-22T16:36:50.896Z,1.10
2022-08-22T16:39:20.699Z,0.85
2022-08-22T16:41:51.574Z,1.00
2022-08-22T16:44:30.108Z,0.95
2022-08-22T16:47:17.318Z,0.90
2022-08-22T16:49:49.888Z,0.90
2022-08-22T16:52:25.512Z,1.00
2022-08-22T16:54:55.057Z,0.73
2022-08-22T16:57:34.358Z,0.90
2022-08-22T17:00:23.692Z,1.00
2022-08-22T17:02:56.276Z,0.93
2022-08-22T17:05:40.713Z,1.10
2022-08-22T17:08:07.223Z,1.00
2022-08-22T17:10:39.652Z,0.85
2022-08-22T17:13:19.140Z,1.00
2022-08-22T17:15:59.487Z,1.10
2022-08-22T17:18:46.074Z,1.00
2022-08-22T17:21:15.786Z,1.30
2022-08-22T17:23:53.262Z,1.13
2022-08-22T17:26:24.053Z,1.10
2022-08-22T17:29:12.453Z,1.00
2022-08-22T17:32:03.032Z,1.08
2022-08-22T17:34:47.715Z,1.20
2022-08-22T17:37:21.968Z,1.00
2022-08-22T17:40:04.193Z,1.10
2022-08-22T17:42:55.780Z,1.20
2022-08-22T17:45:32.756Z,1.13
2022-08-22T17:48:12.228Z,1.17
2022-08-22T17:50:49.929Z,0.90
2022-08-22T17:53:27.936Z,1.33
2022-08-22T17:56:03.865Z,2.00
2022-08-22T17:58:44.000Z,1.70
2022-08-22T18:01:50.478Z,1.40
2022-08-22T18:04:24.691Z,1.50
2022-08-22T18:07:22.148Z,1.23
2022-08-22T18:09:52.181Z,1.48
2022-08-22T18:12:45.298Z,1.10
2022-08-22T18:15:18.858Z,2.30
2022-08-22T18:18:07.340Z,2.78
2022-08-22T18:20:39.932Z,2.90
2022-08-22T18:23:21.666Z,1.60
2022-08-22T18:26:04.612Z,1.27
2022-08-22T18:28:35.740Z,1.60
2022-08-22T18:31:58.011Z,1.42
2022-08-22T18:34:55.809Z,1.40
2022-08-22T18:37:41.990Z,1.20
2022-08-22T18:40:30.103Z,1.30
2022-08-22T18:43:11.928Z,1.27
2022-08-22T18:45:47.525Z,1.20
2022-08-22T18:48:54.393Z,1.20
2022-08-22T18:51:31.233Z,1.13
2022-08-22T18:54:05.234Z,1.17
2022-08-22T18:56:31.784Z,1.48
2022-08-22T18:59:13.516Z,1.30
2022-08-22T19:02:18.485Z,1.13
2022-08-22T19:05:14.608Z,1.10
2022-08-22T19:10:40.837Z,1.48
2022-08-22T19:13:24.681Z,1.40
2022-08-22T19:16:25.024Z,1.63
2022-08-22T19:18:53.291Z,1.50
2022-08-22T19:21:28.841Z,1.27
2022-08-22T19:23:55.572Z,1.25
2022-08-22T19:26:23.134Z,1.20
2022-08-22T19:28:58.228Z,1.48
2022-08-22T19:31:36.963Z,1.20
2022-08-22T19:34:28.520Z,1.40
2022-08-22T19:37:30.665Z,1.40
2022-08-22T19:40:08.654Z,1.30
2022-08-22T19:45:08.336Z,1.40
2022-08-22T19:47:39.790Z,1.33
2022-08-22T19:50:30.952Z,1.25
2022-08-22T19:53:22.204Z,1.30
2022-08-22T19:56:21.084Z,1.00
2022-08-22T19:59:01.249Z,1.10
2022-08-22T20:01:40.024Z,1.38
2022-08-22T20:04:22.217Z,1.55
2022-08-22T20:06:51.573Z,1.30
2022-08-22T20:09:40.809Z,1.50
2022-08-22T20:12:33.698Z,1.35
2022-08-22T20:15:17.820Z,1.20
2022-08-22T20:17:44.678Z,1.42
2022-08-22T20:20:35.105Z,2.10
2022-08-22T20:23:20.086Z,1.30
2022-08-22T20:25:50.678Z,1.25
2022-08-22T20:28:26.357Z,1.30
2022-08-22T20:30:57.096Z,1.30
2022-08-22T20:33:29.546Z,1.60
2022-08-22T20:36:01.705Z,1.30
2022-08-22T20:38:55.440Z,1.50
2022-08-22T20:41:31.773Z,1.20
2022-08-22T20:44:16.720Z,1.30
2022-08-22T20:47:04.663Z,1.30
2022-08-22T20:49:37.756Z,1.50
2022-08-22T20:52:12.233Z,1.42
2022-08-22T20:54:40.676Z,1.30
2022-08-22T20:57:18.034Z,1.30
2022-08-22T20:59:52.524Z,1.45
2022-08-22T21:02:37.868Z,1.10
2022-08-22T21:05:13.426Z,1.30
2022-08-22T21:07:42.518Z,1.33
2022-08-22T21:10:22.338Z,1.20
2022-08-22T21:13:06.277Z,1.33
2022-08-22T21:15:47.438Z,1.42
2022-08-22T21:18:30.536Z,1.30
2022-08-22T21:21:17.199Z,1.48
2022-08-22T21:23:46.499Z,1.40
2022-08-22T21:26:20.090Z,1.60
2022-08-22T21:28:49.588Z,1.40
2022-08-22T21:31:19.372Z,1.38
2022-08-22T21:33:48.756Z,1.15
2022-08-22T21:36:18.664Z,1.42
2022-08-22T21:38:56.429Z,1.40
2022-08-22T21:41:44.166Z,1.50
2022-08-22T21:44:32.650Z,1.50
2022-08-22T21:47:14.762Z,1.30
2022-08-22T21:50:09.391Z,1.38
2022-08-22T21:52:37.769Z,1.45
2022-08-22T21:55:22.636Z,1.40
2022-08-22T21:58:01.670Z,1.50
2022-08-22T22:00:48.500Z,1.30
2022-08-22T22:03:16.760Z,1.40
2022-08-22T22:05:43.543Z,1.30
2022-08-22T22:08:10.542Z,1.13
2022-08-22T22:10:38.296Z,1.30
2022-08-22T22:13:05.970Z,1.45
2022-08-22T22:15:35.885Z,1.40
2022-08-22T22:18:02.973Z,1.27
2022-08-22T22:20:29.709Z,1.48
2022-08-22T22:22:56.349Z,1.20
2022-08-22T22:25:39.883Z,1.10
2022-08-22T22:28:13.995Z,1.20
2022-08-22T22:30:40.711Z,1.30
2022-08-22T22:33:07.363Z,1.25
2022-08-22T22:35:33.996Z,1.23
2022-08-22T22:38:00.974Z,1.35
2022-08-22T22:40:27.825Z,1.20
2022-08-22T22:42:54.625Z,1.35
2022-08-22T22:45:21.243Z,1.10
2022-08-22T22:47:48.033Z,1.25
2022-08-22T22:50:14.741Z,1.50
2022-08-22T22:52:41.326Z,1.30
2022-08-22T22:55:08.920Z,1.23
2022-08-22T22:57:41.338Z,1.10
2022-08-22T23:00:10.307Z,1.20
2022-08-22T23:02:36.952Z,1.30
2022-08-22T23:05:03.771Z,1.20
2022-08-22T23:07:30.490Z,1.40
2022-08-22T23:10:01.497Z,0.98
2022-08-22T23:12:28.940Z,1.13
2022-08-22T23:14:55.608Z,1.10
2022-08-22T23:17:22.264Z,1.10
2022-08-22T23:19:50.407Z,1.30
2022-08-22T23:22:17.066Z,1.10
2022-08-22T23:24:43.644Z,1.10
2022-08-22T23:27:10.522Z,1.10
2022-08-22T23:29:38.291Z,1.30
2022-08-22T23:32:05.101Z,1.17
2022-08-22T23:34:33.907Z,1.00
2022-08-22T23:37:01.469Z,1.27
2022-08-22T23:39:29.092Z,1.15
2022-08-22T23:41:56.049Z,1.38
2022-08-22T23:44:24.956Z,1.27
2022-08-22T23:46:51.680Z,1.30
2022-08-22T23:49:18.355Z,1.20
2022-08-22T23:51:45.071Z,1.10
2022-08-22T23:54:11.794Z,1.30
2022-08-22T23:56:40.424Z,1.35
2022-08-22T23:59:09.409Z,1.30
